createdAt,value
2018-08-30T00:01:15.528Z,101990.98
2018-08-30T00:03:43.208Z,101992.63
2018-08-30T00:06:10.634Z,101997.34
2018-08-30T00:08:38.111Z,101994.95
2018-08-30T00:11:05.720Z,101999.77
2018-08-30T00:13:33.212Z,102004.00
2018-08-30T00:16:00.681Z,101998.06
2018-08-30T00:18:28.277Z,101999.61
2018-08-30T00:20:55.753Z,101990.48
2018-08-30T00:23:23.249Z,101991.44
2018-08-30T00:25:51.252Z,101992.80
2018-08-30T00:28:18.753Z,101983.27
2018-08-30T00:30:46.190Z,101989.31
2018-08-30T00:33:13.913Z,101991.73
2018-08-30T00:35:41.378Z,101980.78
2018-08-30T00:38:08.828Z,101978.28
2018-08-30T00:40:36.512Z,101972.31
2018-08-30T00:43:03.960Z,101976.88
2018-08-30T00:45:31.422Z,101977.95
2018-08-30T00:47:59.185Z,101975.92
2018-08-30T00:50:26.641Z,101980.46
2018-08-30T00:52:54.084Z,101969.30
2018-08-30T00:55:21.767Z,101973.05
2018-08-30T00:57:49.202Z,101976.59
2018-08-30T01:00:16.996Z,101975.23
2018-08-30T01:02:44.720Z,101980.16
2018-08-30T01:05:12.184Z,101989.48
2018-08-30T01:07:39.645Z,101989.37
2018-08-30T01:10:07.407Z,101990.63
2018-08-30T01:12:39.382Z,101991.03
2018-08-30T01:15:06.989Z,101984.69
2018-08-30T01:17:34.648Z,101989.09
2018-08-30T01:20:02.153Z,101980.55
2018-08-30T01:22:30.278Z,101974.29
2018-08-30T01:24:57.983Z,101980.55
2018-08-30T01:27:25.520Z,101977.39
2018-08-30T01:29:53.080Z,101972.78
2018-08-30T01:32:20.871Z,101970.00
2018-08-30T01:34:48.407Z,101967.81
2018-08-30T01:40:14.287Z,101950.31
2018-08-30T01:42:41.825Z,101947.11
2018-08-30T01:45:09.297Z,101939.04
2018-08-30T01:47:36.971Z,101944.83
2018-08-30T01:50:04.593Z,101947.89
2018-08-30T01:52:32.060Z,101938.84
2018-08-30T01:54:59.597Z,101931.74
2018-08-30T01:57:27.071Z,101929.52
2018-08-30T01:59:54.578Z,101922.79
2018-08-30T02:02:22.356Z,101931.27
2018-08-30T02:04:50.031Z,101925.48
2018-08-30T02:07:17.489Z,101921.45
2018-08-30T02:09:45.142Z,101927.14
2018-08-30T02:12:12.611Z,101925.29
2018-08-30T02:14:40.105Z,101926.63
2018-08-30T02:17:07.876Z,101929.33
2018-08-30T02:19:35.306Z,101928.95
2018-08-30T02:22:02.794Z,101929.83
2018-08-30T02:24:30.508Z,101933.09
2018-08-30T02:26:57.961Z,101940.80
2018-08-30T02:29:25.435Z,101937.22
2018-08-30T02:31:53.233Z,101937.22
2018-08-30T02:34:20.746Z,101928.78
2018-08-30T02:36:48.319Z,101926.19
2018-08-30T02:39:16.112Z,101930.22
2018-08-30T02:41:43.511Z,101921.80
2018-08-30T02:44:11.003Z,101922.41
2018-08-30T02:46:38.758Z,101920.66
2018-08-30T02:49:06.401Z,101919.91
2018-08-30T02:51:33.825Z,101913.44
2018-08-30T02:54:01.630Z,101911.03
2018-08-30T02:56:29.116Z,101906.45
2018-08-30T02:58:56.592Z,101902.70
2018-08-30T03:01:24.202Z,101902.39
2018-08-30T03:03:51.890Z,101901.23
2018-08-30T03:06:19.404Z,101896.05
2018-08-30T03:08:47.236Z,101890.77
2018-08-30T03:11:14.724Z,101887.33
2018-08-30T03:13:42.228Z,101897.22
2018-08-30T03:16:09.880Z,101892.80
2018-08-30T03:18:37.348Z,101892.87
2018-08-30T03:21:04.878Z,101885.39
2018-08-30T03:23:32.611Z,101879.23
2018-08-30T03:26:00.096Z,101865.88
2018-08-30T03:28:27.511Z,101866.08
2018-08-30T03:30:55.221Z,101863.86
2018-08-30T03:33:22.713Z,101863.48
2018-08-30T03:35:50.170Z,101864.36
2018-08-30T03:38:17.895Z,101865.20
2018-08-30T03:40:45.399Z,101852.62
2018-08-30T03:43:13.167Z,101857.13
2018-08-30T03:45:40.839Z,101852.72
2018-08-30T03:48:08.363Z,101848.31
2018-08-30T03:50:35.865Z,101847.44
2018-08-30T03:53:03.739Z,101846.66
2018-08-30T03:55:31.242Z,101845.41
2018-08-30T03:57:58.705Z,101844.48
2018-08-30T04:00:26.497Z,101843.70
2018-08-30T04:02:53.933Z,101840.63
2018-08-30T04:05:21.580Z,101842.91
2018-08-30T04:07:49.315Z,101839.86
2018-08-30T04:10:16.777Z,101835.45
2018-08-30T04:12:44.225Z,101835.55
2018-08-30T04:15:11.814Z,101835.64
2018-08-30T04:17:39.248Z,101841.86
2018-08-30T04:20:06.813Z,101841.58
2018-08-30T04:22:34.510Z,101837.17
2018-08-30T04:25:01.997Z,101837.27
2018-08-30T04:27:29.534Z,101835.52
2018-08-30T04:29:57.239Z,101840.62
2018-08-30T04:32:24.744Z,101842.06
2018-08-30T04:34:52.221Z,101849.25
2018-08-30T04:37:19.923Z,101845.22
2018-08-30T04:39:47.396Z,101846.66
2018-08-30T04:42:15.837Z,101842.25
2018-08-30T04:44:43.717Z,101840.40
2018-08-30T04:47:11.193Z,101839.94
2018-08-30T04:49:38.703Z,101840.21
2018-08-30T04:52:06.371Z,101842.06
2018-08-30T04:54:33.870Z,101833.80
2018-08-30T04:57:01.346Z,101843.59
2018-08-30T04:59:28.984Z,101845.02
2018-08-30T05:01:56.437Z,101842.43
2018-08-30T05:04:23.944Z,101834.45
2018-08-30T05:06:51.576Z,101832.33
2018-08-30T05:09:19.084Z,101839.94
2018-08-30T05:11:46.539Z,101832.93
2018-08-30T05:14:14.140Z,101829.27
2018-08-30T05:16:41.623Z,101821.58
2018-08-30T05:19:09.098Z,101822.45
2018-08-30T05:21:36.824Z,101819.30
2018-08-30T05:24:04.366Z,101818.70
2018-08-30T05:26:31.784Z,101811.92
2018-08-30T05:28:59.435Z,101810.38
2018-08-30T05:31:26.950Z,101805.66
2018-08-30T05:33:54.436Z,101806.14
2018-08-30T05:36:22.030Z,101794.62
2018-08-30T05:38:49.556Z,101801.91
2018-08-30T05:44:47.664Z,101803.74
2018-08-30T05:47:15.091Z,101802.58
2018-08-30T05:49:42.532Z,101795.92
2018-08-30T05:52:10.220Z,101794.28
2018-08-30T05:54:37.702Z,101800.61
2018-08-30T05:57:05.189Z,101800.31
2018-08-30T05:59:32.931Z,101801.29
2018-08-30T06:02:00.382Z,101799.17
2018-08-30T06:04:27.898Z,101796.58
2018-08-30T06:06:55.851Z,101797.98
2018-08-30T06:09:23.349Z,101799.91
2018-08-30T06:11:50.834Z,101797.28
2018-08-30T06:14:18.399Z,101792.47
2018-08-30T06:16:45.872Z,101785.52
2018-08-30T06:19:13.359Z,101787.14
2018-08-30T06:21:41.091Z,101786.36
2018-08-30T06:24:08.639Z,101796.34
2018-08-30T06:26:36.085Z,101788.42
2018-08-30T06:29:03.957Z,101789.83
2018-08-30T06:31:31.411Z,101789.15
2018-08-30T06:33:58.846Z,101781.73
2018-08-30T06:36:26.566Z,101782.77
2018-08-30T06:38:54.070Z,101779.86
2018-08-30T06:41:21.712Z,101787.99
2018-08-30T06:43:49.449Z,101777.00
2018-08-30T06:46:17.014Z,101773.05
2018-08-30T06:48:44.561Z,101770.87
2018-08-30T06:51:12.132Z,101769.52
2018-08-30T06:53:39.586Z,101774.78
2018-08-30T06:56:07.086Z,101764.66
2018-08-30T06:58:34.813Z,101765.20
2018-08-30T07:01:02.192Z,101766.23
2018-08-30T07:03:29.720Z,101770.45
2018-08-30T07:05:57.477Z,101774.06
2018-08-30T07:08:25.176Z,101773.63
2018-08-30T07:10:52.589Z,101768.27
2018-08-30T07:13:20.587Z,101770.16
2018-08-30T07:15:48.049Z,101768.96
2018-08-30T07:18:15.602Z,101775.38
2018-08-30T07:20:43.377Z,101776.02
2018-08-30T07:23:10.845Z,101774.56
2018-08-30T07:25:38.264Z,101770.77
2018-08-30T07:28:06.045Z,101771.06
2018-08-30T07:30:33.440Z,101774.02
2018-08-30T07:33:00.916Z,101770.14
2018-08-30T07:35:28.607Z,101772.50
2018-08-30T07:37:56.134Z,101766.00
2018-08-30T07:40:23.540Z,101771.66
2018-08-30T07:42:51.140Z,101769.61
2018-08-30T07:48:17.202Z,101769.63
2018-08-30T07:50:44.780Z,101779.25
2018-08-30T07:53:12.230Z,101775.85
2018-08-30T07:55:39.895Z,101781.02
2018-08-30T07:58:07.376Z,101772.81
2018-08-30T08:00:34.802Z,101778.86
2018-08-30T08:03:02.382Z,101771.88
2018-08-30T08:05:29.931Z,101776.58
2018-08-30T08:07:57.431Z,101774.12
2018-08-30T08:10:25.368Z,101774.52
2018-08-30T08:12:52.838Z,101769.37
2018-08-30T08:15:20.330Z,101769.61
2018-08-30T08:17:48.040Z,101769.02
2018-08-30T08:20:15.476Z,101770.14
2018-08-30T08:22:42.936Z,101768.09
2018-08-30T08:25:10.737Z,101761.58
2018-08-30T08:27:38.161Z,101756.57
2018-08-30T08:30:05.906Z,101760.51
2018-08-30T08:32:33.698Z,101766.04
2018-08-30T08:35:01.131Z,101762.74
2018-08-30T08:37:28.630Z,101762.98
2018-08-30T08:39:56.354Z,101762.39
2018-08-30T08:42:23.857Z,101754.53
2018-08-30T08:44:51.378Z,101758.83
2018-08-30T08:47:19.058Z,101757.64
2018-08-30T08:49:46.511Z,101749.66
2018-08-30T08:52:13.974Z,101760.88
2018-08-30T08:54:41.616Z,101752.64
2018-08-30T08:57:09.117Z,101753.64
2018-08-30T08:59:36.568Z,101744.70
2018-08-30T09:02:04.321Z,101746.53
2018-08-30T09:04:31.833Z,101738.81
2018-08-30T09:06:59.331Z,101731.58
2018-08-30T09:09:27.080Z,101737.77
2018-08-30T09:11:54.810Z,101729.69
2018-08-30T09:14:22.301Z,101730.03
2018-08-30T09:16:50.005Z,101726.72
2018-08-30T09:19:17.519Z,101727.50
2018-08-30T09:21:44.939Z,101728.84
2018-08-30T09:24:12.528Z,101730.30
2018-08-30T09:26:40.036Z,101737.33
2018-08-30T09:29:07.617Z,101724.16
2018-08-30T09:31:35.190Z,101728.33
2018-08-30T09:34:02.658Z,101728.83
2018-08-30T09:36:30.158Z,101732.66
2018-08-30T09:38:57.967Z,101730.05
2018-08-30T09:41:25.453Z,101725.97
2018-08-30T09:43:53.022Z,101726.09
2018-08-30T09:46:20.746Z,101723.59
2018-08-30T09:48:48.215Z,101723.31
2018-08-30T09:51:15.700Z,101719.70
2018-08-30T09:53:43.359Z,101724.34
2018-08-30T09:56:10.871Z,101723.07
2018-08-30T09:58:38.352Z,101728.45
2018-08-30T10:01:11.364Z,101723.36
2018-08-30T10:03:39.170Z,101710.83
2018-08-30T10:06:06.730Z,101711.87
2018-08-30T10:11:32.674Z,101715.47
2018-08-30T10:14:00.384Z,101714.57
2018-08-30T10:16:27.873Z,101711.80
2018-08-30T10:18:55.496Z,101707.57
2018-08-30T10:21:23.008Z,101706.02
2018-08-30T10:23:50.474Z,101709.52
2018-08-30T10:26:18.146Z,101704.72
2018-08-30T10:28:45.667Z,101700.02
2018-08-30T10:31:13.083Z,101707.13
2018-08-30T10:33:40.754Z,101705.97
2018-08-30T10:36:08.243Z,101705.97
2018-08-30T10:38:35.678Z,101701.20
2018-08-30T10:41:03.652Z,101696.75
2018-08-30T10:43:31.112Z,101702.91
2018-08-30T10:45:58.546Z,101698.94
2018-08-30T10:48:26.106Z,101698.80
2018-08-30T10:50:53.516Z,101694.58
2018-08-30T10:53:21.036Z,101689.50
2018-08-30T10:55:48.568Z,101691.20
2018-08-30T10:58:16.075Z,101695.73
2018-08-30T11:00:43.740Z,101694.37
2018-08-30T11:03:11.661Z,101698.44
2018-08-30T11:05:39.233Z,101697.57
2018-08-30T11:08:06.746Z,101698.30
2018-08-30T11:10:34.437Z,101692.00
2018-08-30T11:13:02.088Z,101697.95
2018-08-30T11:15:29.738Z,101694.51
2018-08-30T11:17:57.464Z,101698.73
2018-08-30T11:20:24.940Z,101695.70
2018-08-30T11:22:52.371Z,101697.90
2018-08-30T11:25:20.058Z,101690.45
2018-08-30T11:27:47.605Z,101692.15
2018-08-30T11:30:15.075Z,101689.74
2018-08-30T11:32:42.655Z,101686.02
2018-08-30T11:35:10.092Z,101684.37
2018-08-30T11:37:37.649Z,101694.50
2018-08-30T11:40:05.421Z,101692.39
2018-08-30T11:42:32.849Z,101694.55
2018-08-30T11:45:00.503Z,101688.78
2018-08-30T11:47:28.195Z,101698.25
2018-08-30T11:49:55.709Z,101692.88
2018-08-30T11:52:23.380Z,101689.95
2018-08-30T11:54:51.121Z,101688.48
2018-08-30T11:57:18.962Z,101684.30
2018-08-30T11:59:46.484Z,101680.58
2018-08-30T12:02:14.353Z,101684.84
2018-08-30T12:04:41.938Z,101684.08
2018-08-30T12:07:09.488Z,101679.05
2018-08-30T12:09:37.346Z,101679.77
2018-08-30T12:12:04.982Z,101681.36
2018-08-30T12:14:32.458Z,101685.59
2018-08-30T12:17:00.486Z,101682.52
2018-08-30T12:19:27.932Z,101681.86
2018-08-30T12:21:55.413Z,101688.59
2018-08-30T12:24:23.155Z,101683.78
2018-08-30T12:26:50.784Z,101679.98
2018-08-30T12:29:18.444Z,101680.62
2018-08-30T12:31:46.071Z,101671.77
2018-08-30T12:34:13.633Z,101670.80
2018-08-30T12:36:41.383Z,101668.89
2018-08-30T12:39:10.677Z,101674.04
2018-08-30T12:41:38.345Z,101674.25
2018-08-30T12:44:05.871Z,101670.69
2018-08-30T12:46:33.590Z,101680.02
2018-08-30T12:49:01.085Z,101678.23
2018-08-30T12:51:28.951Z,101671.78
2018-08-30T12:53:56.341Z,101667.70
2018-08-30T12:56:23.983Z,101674.64
2018-08-30T12:58:57.045Z,101677.05
2018-08-30T13:01:24.790Z,101669.27
2018-08-30T13:03:52.291Z,101659.10
2018-08-30T13:06:20.015Z,101648.91
2018-08-30T13:08:47.822Z,101659.14
2018-08-30T13:11:15.343Z,101665.94
2018-08-30T13:13:43.021Z,101645.89
2018-08-30T13:16:10.417Z,101665.69
2018-08-30T13:18:38.118Z,101659.98
2018-08-30T13:21:05.639Z,101663.88
2018-08-30T13:23:33.562Z,101663.80
2018-08-30T13:26:00.979Z,101659.69
2018-08-30T13:28:28.388Z,101660.16
2018-08-30T13:30:56.071Z,101664.80
2018-08-30T13:33:23.810Z,101664.78
2018-08-30T13:35:51.298Z,101670.49
2018-08-30T13:38:19.134Z,101665.26
2018-08-30T13:40:46.746Z,101674.06
2018-08-30T13:43:14.022Z,101669.44
2018-08-30T13:45:41.778Z,101680.78
2018-08-30T13:48:09.255Z,101680.66
2018-08-30T13:50:36.677Z,101691.30
2018-08-30T13:53:04.451Z,101690.11
2018-08-30T13:56:02.665Z,101688.05
2018-08-30T13:58:30.546Z,101687.61
2018-08-30T14:00:58.182Z,101688.86
2018-08-30T14:03:25.753Z,101685.31
2018-08-30T14:05:53.227Z,101690.64
2018-08-30T14:08:20.683Z,101684.61
2018-08-30T14:10:48.237Z,101686.12
2018-08-30T14:13:15.895Z,101690.66
2018-08-30T14:15:43.305Z,101689.95
2018-08-30T14:18:10.823Z,101703.70
2018-08-30T14:20:38.642Z,101705.93
2018-08-30T14:23:06.119Z,101703.83
2018-08-30T14:25:33.550Z,101705.44
2018-08-30T14:28:01.270Z,101702.49
2018-08-30T14:30:28.724Z,101710.24
2018-08-30T14:32:56.220Z,101708.52
2018-08-30T14:35:24.078Z,101711.59
2018-08-30T14:37:51.519Z,101707.91
2018-08-30T14:40:19.062Z,101715.31
2018-08-30T14:42:46.700Z,101713.22
2018-08-30T14:45:14.185Z,101711.12
2018-08-30T14:47:41.894Z,101694.77
2018-08-30T14:50:09.454Z,101709.03
2018-08-30T14:52:36.899Z,101714.33
2018-08-30T14:55:04.634Z,101714.93
2018-08-30T14:57:32.278Z,101721.22
2018-08-30T14:59:59.728Z,101719.50
2018-08-30T15:02:27.159Z,101726.36
2018-08-30T15:04:54.756Z,101726.48
2018-08-30T15:07:22.304Z,101726.13
2018-08-30T15:09:49.730Z,101727.09
2018-08-30T15:12:17.372Z,101735.21
2018-08-30T15:14:44.806Z,101733.47
2018-08-30T15:17:12.345Z,101742.22
2018-08-30T15:19:39.911Z,101745.05
2018-08-30T15:23:10.275Z,101745.28
2018-08-30T15:25:37.768Z,101762.07
2018-08-30T15:28:05.867Z,101766.73
2018-08-30T15:30:33.444Z,101774.32
2018-08-30T15:33:01.058Z,101776.42
2018-08-30T15:35:28.646Z,101782.30
2018-08-30T15:37:56.077Z,101783.50
2018-08-30T15:40:23.779Z,101781.03
2018-08-30T15:42:51.304Z,101796.02
2018-08-30T15:45:18.918Z,101803.13
2018-08-30T15:47:46.586Z,101796.31
2018-08-30T15:50:14.051Z,101797.01
2018-08-30T15:52:41.565Z,101795.75
2018-08-30T15:55:09.103Z,101803.84
2018-08-30T15:57:36.585Z,101812.25
2018-08-30T16:00:04.366Z,101819.09
2018-08-30T16:02:31.978Z,101820.14
2018-08-30T16:04:59.407Z,101825.34
2018-08-30T16:07:26.849Z,101822.59
2018-08-30T16:09:54.571Z,101814.56
2018-08-30T16:12:22.173Z,101817.42
2018-08-30T16:14:49.691Z,101821.08
2018-08-30T16:17:17.500Z,101817.19
2018-08-30T16:19:44.817Z,101826.84
2018-08-30T16:22:12.361Z,101819.67
2018-08-30T16:24:40.443Z,101821.85
2018-08-30T16:27:07.979Z,101827.39
2018-08-30T16:29:35.490Z,101838.72
2018-08-30T16:32:03.139Z,101840.13
2018-08-30T16:34:30.676Z,101842.27
2018-08-30T16:36:58.159Z,101845.66
2018-08-30T16:39:25.783Z,101851.27
2018-08-30T16:41:53.457Z,101851.58
2018-08-30T16:44:20.993Z,101851.60
2018-08-30T16:46:48.632Z,101854.61
2018-08-30T16:49:16.078Z,101853.58
2018-08-30T16:51:43.588Z,101860.13
2018-08-30T16:54:11.146Z,101864.98
2018-08-30T16:56:38.614Z,101863.45
2018-08-30T16:59:06.145Z,101864.05
2018-08-30T17:01:33.948Z,101871.00
2018-08-30T17:04:01.385Z,101880.34
2018-08-30T17:06:28.977Z,101883.08
2018-08-30T17:08:56.699Z,101874.25
2018-08-30T17:11:24.222Z,101876.48
2018-08-30T17:13:51.706Z,101881.19
2018-08-30T17:16:19.329Z,101885.44
2018-08-30T17:18:48.879Z,101885.16
2018-08-30T17:21:16.371Z,101878.27
2018-08-30T17:23:43.999Z,101882.09
2018-08-30T17:26:11.699Z,101883.17
2018-08-30T17:28:39.196Z,101885.28
2018-08-30T17:31:06.853Z,101892.78
2018-08-30T17:33:34.364Z,101893.59
2018-08-30T17:36:01.888Z,101892.53
2018-08-30T17:38:29.629Z,101897.67
2018-08-30T17:40:57.230Z,101896.43
2018-08-30T17:43:24.639Z,101899.72
2018-08-30T17:45:52.182Z,101898.07
2018-08-30T17:48:19.728Z,101897.79
2018-08-30T17:50:47.182Z,101896.64
2018-08-30T17:53:14.749Z,101905.28
2018-08-30T17:55:42.298Z,101914.02
2018-08-30T17:58:09.930Z,101916.90
2018-08-30T18:00:37.454Z,101921.13
2018-08-30T18:03:05.146Z,101925.77
2018-08-30T18:05:32.587Z,101916.91
2018-08-30T18:08:00.071Z,101919.02
2018-08-30T18:10:27.521Z,101916.52
2018-08-30T18:12:55.006Z,101920.17
2018-08-30T18:15:23.614Z,101923.33
2018-08-30T18:17:51.087Z,101923.89
2018-08-30T18:20:18.537Z,101927.19
2018-08-30T18:22:46.183Z,101927.75
2018-08-30T18:25:13.655Z,101938.60
2018-08-30T18:27:41.248Z,101941.85
2018-08-30T18:30:09.698Z,101941.10
2018-08-30T18:32:37.219Z,101943.48
2018-08-30T18:35:05.944Z,101941.85
2018-08-30T18:37:33.476Z,101943.76
2018-08-30T18:40:00.941Z,101946.07
2018-08-30T18:42:28.468Z,101949.73
2018-08-30T18:44:56.063Z,101949.83
2018-08-30T18:47:23.533Z,101946.44
2018-08-30T18:49:51.098Z,101947.88
2018-08-30T18:52:18.589Z,101945.75
2018-08-30T18:54:46.106Z,101948.94
2018-08-30T18:57:13.575Z,101946.25
2018-08-30T18:59:41.201Z,101947.69
2018-08-30T19:02:08.695Z,101947.28
2018-08-30T19:04:36.136Z,101951.50
2018-08-30T19:07:03.783Z,101951.59
2018-08-30T19:09:31.262Z,101951.97
2018-08-30T19:11:58.722Z,101958.41
2018-08-30T19:14:26.327Z,101950.43
2018-08-30T19:16:59.658Z,101955.02
2018-08-30T19:19:27.613Z,101967.80
2018-08-30T19:21:55.152Z,101969.33
2018-08-30T19:24:28.238Z,101974.38
2018-08-30T19:26:55.766Z,101967.00
2018-08-30T19:29:23.397Z,101972.94
2018-08-30T19:31:50.901Z,101969.88
2018-08-30T19:34:18.556Z,101967.27
2018-08-30T19:36:45.956Z,101976.67
2018-08-30T19:39:13.454Z,101978.20
2018-08-30T19:41:40.957Z,101978.34
2018-08-30T19:44:09.008Z,101980.66
2018-08-30T19:46:36.464Z,101984.74
2018-08-30T19:49:04.080Z,101984.45
2018-08-30T19:51:31.587Z,101985.39
2018-08-30T19:53:59.140Z,101986.73
2018-08-30T19:56:26.591Z,101990.30
2018-08-30T19:58:54.025Z,101995.67
2018-08-30T20:01:21.524Z,101997.39
2018-08-30T20:03:48.978Z,102001.42
2018-08-30T20:06:16.407Z,101998.27
2018-08-30T20:08:43.860Z,102002.77
2018-08-30T20:11:11.378Z,102001.05
2018-08-30T20:13:38.857Z,101997.10
2018-08-30T20:16:06.377Z,102006.05
2018-08-30T20:18:34.054Z,101997.98
2018-08-30T20:21:01.613Z,102009.20
2018-08-30T20:23:29.078Z,102010.53
2018-08-30T20:25:56.529Z,102009.28
2018-08-30T20:28:23.964Z,102013.40
2018-08-30T20:30:51.662Z,102014.74
2018-08-30T20:33:19.184Z,102012.23
2018-08-30T20:35:46.637Z,102019.03
2018-08-30T20:38:14.090Z,102017.78
2018-08-30T20:40:41.813Z,102020.64
2018-08-30T20:43:09.336Z,102028.33
2018-08-30T20:45:36.810Z,102019.01
2018-08-30T20:48:04.658Z,102023.67
2018-08-30T20:50:32.186Z,102038.07
2018-08-30T20:52:59.714Z,102032.88
2018-08-30T20:55:27.387Z,102034.30
2018-08-30T20:57:54.805Z,102035.78
2018-08-30T21:00:22.328Z,102042.58
2018-08-30T21:02:50.121Z,102043.17
2018-08-30T21:05:17.692Z,102040.56
2018-08-30T21:07:45.146Z,102039.77
2018-08-30T21:10:12.942Z,102039.95
2018-08-30T21:12:40.452Z,102052.49
2018-08-30T21:15:08.035Z,102040.49
2018-08-30T21:17:35.766Z,102036.09
2018-08-30T21:20:03.381Z,102038.39
2018-08-30T21:22:30.882Z,102037.59
2018-08-30T21:24:58.656Z,102036.42
2018-08-30T21:27:26.122Z,102041.50
2018-08-30T21:29:53.786Z,102045.20
2018-08-30T21:32:21.574Z,102050.66
2018-08-30T21:34:49.009Z,102048.55
2018-08-30T21:37:16.489Z,102053.13
2018-08-30T21:39:44.199Z,102051.95
2018-08-30T21:42:11.727Z,102057.41
2018-08-30T21:44:39.226Z,102061.89
2018-08-30T21:47:07.021Z,102068.52
2018-08-30T21:49:34.454Z,102066.30
2018-08-30T21:52:01.989Z,102068.60
2018-08-30T21:54:29.608Z,102049.13
2018-08-30T21:56:57.152Z,102071.38
2018-08-30T21:59:24.603Z,102082.57
2018-08-30T22:01:52.232Z,102073.17
2018-08-30T22:04:19.943Z,102073.17
2018-08-30T22:06:47.433Z,102078.16
2018-08-30T22:09:14.965Z,102080.47
2018-08-30T22:11:42.876Z,102087.72
2018-08-30T22:14:10.497Z,102085.12
2018-08-30T22:16:38.139Z,102082.13
2018-08-30T22:19:05.691Z,102081.34
2018-08-30T22:21:33.251Z,102082.69
2018-08-30T22:24:01.004Z,102078.73
2018-08-30T22:26:28.605Z,102083.31
2018-08-30T22:28:56.025Z,102082.05
2018-08-30T22:31:23.543Z,102086.08
2018-08-30T22:33:51.480Z,102079.94
2018-08-30T22:36:18.918Z,102081.83
2018-08-30T22:38:46.606Z,102087.27
2018-08-30T22:41:14.074Z,102084.29
2018-08-30T22:43:41.574Z,102087.52
2018-08-30T22:46:09.237Z,102084.91
2018-08-30T22:48:36.781Z,102086.80
2018-08-30T22:51:04.241Z,102090.03
2018-08-30T22:53:31.962Z,102093.67
2018-08-30T22:55:59.397Z,102092.88
2018-08-30T22:58:26.855Z,102090.27
2018-08-30T23:00:54.395Z,102092.56
2018-08-30T23:03:21.839Z,102094.87
2018-08-30T23:05:49.356Z,102094.87
2018-08-30T23:08:17.101Z,102094.06
2018-08-30T23:10:44.523Z,102095.03
2018-08-30T23:13:11.995Z,102091.47
2018-08-30T23:15:39.665Z,102097.30
2018-08-30T23:18:07.176Z,102098.25
2018-08-30T23:20:34.599Z,102100.05
2018-08-30T23:23:02.149Z,102101.02
2018-08-30T23:25:29.611Z,102096.16
2018-08-30T23:27:57.043Z,102101.60
2018-08-30T23:30:24.626Z,102110.98
2018-08-30T23:32:52.036Z,102120.38
2018-08-30T23:35:19.652Z,102119.03
2018-08-30T23:37:47.291Z,102120.38
2018-08-30T23:40:14.751Z,102124.89
2018-08-30T23:42:42.183Z,102124.02
2018-08-30T23:45:09.939Z,102124.55
2018-08-30T23:47:37.531Z,102136.55
2018-08-30T23:50:05.453Z,102135.28
2018-08-30T23:52:33.103Z,102133.09
2018-08-30T23:55:00.599Z,102134.52
2018-08-30T23:57:28.088Z,102139.46
